CheckWX is a tool to help pilots better visualize weather data.  It is not intended as a substitute for an official pre-flight weather briefing.

14:26:03 UTC

KHNB TAF
Huntingburg Airport
Huntingburg, Indiana, USA
KHNB 161120Z 1612/1712 17007KT P6SM BKN021 FM161300 18011G19KT P6SM VCSH BKN050 TEMPO 1613/1617 BKN021 FM161700 20013G22KT P6SM VCTS BKN040CB FM162300 19010KT P6SM -SHRA BKN050 FM170500 20008KT P6SM VCSH BKN015 TEMPO 1708/1712 BKN008

Jul-16@
12:00 UTC

Jul-16 @ 12:00 UTC

Jul-16@
13:00 UTC

Jul-16 @ 13:00 UTC

KHNB 161120Z 1612/1712 17007KT P6SM BKN021

Expired

Wind
  • 170° at 7 KTS
Cloud Levels
  • Broken at 2,100' AGL

Jul-16@
13:00 UTC

Jul-16 @ 13:00 UTC

Jul-16@
17:00 UTC

Jul-16 @ 17:00 UTC

FM161300 18011G19KT P6SM VCSH BKN050

From

From Standard forecast or significant change

Wind
  • 180° at 11 KTS
  • {Gusting to 19 KTS
Cloud Levels
  • Broken at 5,000' AGL

Jul-16@
13:00 UTC

Jul-16 @ 13:00 UTC

Jul-16@
17:00 UTC

Jul-16 @ 17:00 UTC

TEMPO 1613/1617 BKN021

Temporary

Temporary Changes expected for less than half the time period

Cloud Levels
  • Broken at 2,100' AGL

Jul-16@
17:00 UTC

Jul-16 @ 17:00 UTC

Jul-16@
23:00 UTC

Jul-16 @ 23:00 UTC

FM161700 20013G22KT P6SM VCTS BKN040CB

From

From Standard forecast or significant change

Wind
  • 200° at 13 KTS
  • {Gusting to 22 KTS
Conditions
Area Thunderstorm
Cloud Levels
  • Broken at 4,000' AGL

Jul-16@
23:00 UTC

Jul-16 @ 23:00 UTC

Jul-17@
05:00 UTC

Jul-17 @ 05:00 UTC

FM162300 19010KT P6SM -SHRA BKN050

From

From Standard forecast or significant change

Wind
  • 190° at 10 KTS
Conditions
Light Rain
Cloud Levels
  • Broken at 5,000' AGL

Jul-17@
05:00 UTC

Jul-17 @ 05:00 UTC

Jul-17@
12:00 UTC

Jul-17 @ 12:00 UTC

FM170500 20008KT P6SM VCSH BKN015

From

From Standard forecast or significant change

Wind
  • 200° at 8 KTS
Cloud Levels
  • Broken at 1,500' AGL

Jul-17@
08:00 UTC

Jul-17 @ 08:00 UTC

Jul-17@
12:00 UTC

Jul-17 @ 12:00 UTC

TEMPO 1708/1712 BKN008

Temporary

Temporary Changes expected for less than half the time period

Cloud Levels
  • Broken at 800' AGL